OIHH  Hamadan Airport

Add Bookmark

Hamadan, Iran

Status IATA
Operational HDM
Latitude Longitude
34° 52' 9" N 48° 33' 9" E
34.869202 48.552502
Local (DST + 5) UTC (GMT + 4)
Oct 25, 2014 11:14 Oct 25, 2014 07:44
Sunrise-Sunset Local UTC
Begin Civil Twilight 06:03 02:33
Sunrise 06:29 02:59
Sunset 05:30 14:00
End Civil Twilight 05:56 14:26

Current Weather

METAR Observed VFR
OIHH 250648Z 16002KT CAVOK 15/02 Q1021 Sat, Oct 25, 2014 @ 06:48 UTC
(56 Minutes ago)
Visual Flight Rules
Wind Visibility Clouds Conditions
160° at 2 knots (4 kph) 10 km or more
  • Clear skies
  • No significant weather
Temperatures Readings Precipitation
Current Temp 15°C (59°F)
Dewpoint 2°C (36°F)
Humidity 42%
Altimeter 30.15"Hg
Sea Level Pressure 1021mb
Field Elevation 5764.44'
None Recorded

Additional weather within a 92.6km radius of OIHH

Map ICAO Location
OIHM 69.5km S (160°)

24 Hour Weather History

Loading
-

24 Hour Weather Graphs

Loading
-

CheckWX.com is intended as a tool to help pilots better visualize weather data. It is not intended as a substitute for an official weather briefing obtained from a Flight Service Station. CheckWX.com does not meet the FAA requirements for an official pre-flight weather briefing. Therefore, it's important that pilots still call and obtain an official FSS pre-flight weather briefing.